| time (UTC) | temp C | wind direction | speed KPH | gust KPH | rain 1hr cm | rain 24hr cm | rain mn cm | humidity % | barometer mb |
| 20260509090739 | 10 | 167 | 6.4 | 6.4 | 0.00 | 0.00 | 0.00 | 72 | 1006.7 |
| 20260509090236 | 10 | 212 | 11.3 | 12.9 | 0.00 | 0.00 | 0.00 | 72 | 1007.0 |
| 20260509085734 | 10 | 197 | 4.8 | 4.8 | 0.00 | 0.00 | 0.00 | 69 | 1007.1 |
| 20260509085231 | 10 | 199 | 4.8 | 4.8 | 0.00 | 0.00 | 0.00 | 68 | 1007.0 |
| 20260509084727 | 10 | 184 | 6.4 | 6.4 | 0.00 | 0.00 | 0.00 | 68 | 1007.2 |
| 20260509084224 | 10 | 223 | 6.4 | 6.4 | 0.00 | 0.00 | 0.00 | 67 | 1007.1 |
| 20260509083722 | 10 | 173 | 6.4 | 6.4 | 0.00 | 0.00 | 0.00 | 66 | 1007.0 |
| 20260509083218 | 10 | 212 | 6.4 | 6.4 | 0.00 | 0.00 | 0.00 | 66 | 1007.1 |
| 20260509082715 | 10 | 201 | 6.4 | 6.4 | 0.00 | 0.00 | 0.00 | 65 | 1007.1 |
| 20260509082212 | 10 | 160 | 8.0 | 9.7 | 0.00 | 0.00 | 0.00 | 63 | 1007.6 |
| 20260509081708 | 10 | 202 | 6.4 | 6.4 | 0.00 | 0.00 | 0.00 | 62 | 1007.2 |
| 20260509081206 | 10 | 218 | 6.4 | 6.4 | 0.00 | 0.00 | 0.00 | 61 | 1007.6 |
| 20260509080704 | 10 | 204 | 12.9 | 14.5 | 0.00 | 0.00 | 0.00 | 59 | 1007.6 |
| 20260509080201 | 10 | 189 | 8.0 | 9.7 | 0.00 | 0.00 | 0.00 | 56 | 1007.6 |
| 20260509075659 | 10 | 181 | 8.0 | 11.3 | 0.00 | 0.00 | 0.00 | 54 | 1007.8 |
| 20260509075157 | 10 | 155 | 8.0 | 9.7 | 0.00 | 0.00 | 0.00 | 52 | 1007.9 |
| 20260509074653 | 11 | 155 | 8.0 | 9.7 | 0.00 | 0.00 | 0.00 | 49 | 1008.1 |
| 20260509074150 | 11 | 186 | 9.7 | 11.3 | 0.00 | 0.00 | 0.00 | 48 | 1008.1 |
| 20260509073647 | 10 | 203 | 9.7 | 11.3 | 0.00 | 0.00 | 0.00 | 46 | 1008.2 |
| 20260509073143 | 11 | 151 | 4.8 | 4.8 | 0.00 | 0.00 | 0.00 | 43 | 1008.3 |
| 20260509072641 | 11 | 209 | 6.4 | 9.7 | 0.00 | 0.00 | 0.00 | 42 | 1008.6 |
| 20260509072137 | 11 | 221 | 9.7 | 9.7 | 0.00 | 0.00 | 0.00 | 41 | 1008.7 |
| 20260509071634 | 11 | 204 | 9.7 | 11.3 | 0.00 | 0.00 | 0.00 | 39 | 1008.5 |
| 20260509071131 | 11 | 179 | 9.7 | 11.3 | 0.00 | 0.00 | 0.00 | 37 | 1008.7 |
| 20260509070628 | 11 | 188 | 8.0 | 11.3 | 0.00 | 0.00 | 0.00 | 37 | 1008.7 |
| 20260509070124 | 11 | 180 | 9.7 | 12.9 | 0.00 | 0.00 | 0.00 | 36 | 1008.9 |
| 20260509065620 | 11 | 208 | 9.7 | 12.9 | 0.00 | 0.00 | 0.00 | 35 | 1008.7 |
| 20260509065116 | 11 | 170 | 9.7 | 11.3 | 0.00 | 0.00 | 0.00 | 34 | 1009.0 |
| 20260509064614 | 11 | 173 | 12.9 | 14.5 | 0.00 | 0.00 | 0.00 | 34 | 1009.0 |
| 20260509064112 | 11 | 178 | 14.5 | 17.7 | 0.00 | 0.00 | 0.00 | 33 | 1009.2 |
| 20260509063608 | 11 | 201 | 11.3 | 12.9 | 0.00 | 0.00 | 0.00 | 34 | 1009.3 |
| 20260509063105 | 11 | 195 | 11.3 | 12.9 | 0.00 | 0.00 | 0.00 | 34 | 1009.3 |
| 20260509062602 | 11 | 161 | 12.9 | 14.5 | 0.00 | 0.00 | 0.00 | 33 | 1009.1 |
| 20260509062059 | 11 | 192 | 9.7 | 11.3 | 0.00 | 0.00 | 0.00 | 33 | 1009.3 |
| 20260509061555 | 11 | 217 | 9.7 | 12.9 | 0.00 | 0.00 | 0.00 | 32 | 1009.4 |
| 20260509061053 | 11 | 199 | 4.8 | 4.8 | 0.00 | 0.00 | 0.00 | 33 | 1009.4 |
| 20260509060551 | 11 | 174 | 8.0 | 11.3 | 0.00 | 0.00 | 0.00 | 32 | 1009.5 |
| 20260509060046 | 10 | 189 | 4.8 | 4.8 | 0.00 | 0.00 | 0.00 | 32 | 1009.6 |
| 20260509055542 | 10 | 200 | 6.4 | 6.4 | 0.00 | 0.00 | 0.00 | 33 | 1009.6 |
| 20260509055038 | 10 | 200 | 6.4 | 6.4 | 0.00 | 0.00 | 0.00 | 32 | 1009.7 |
| 20260509054535 | 10 | 211 | 3.2 | 3.2 | 0.00 | 0.00 | 0.00 | 33 | 1009.8 |
| 20260509054033 | 10 | 210 | 3.2 | 3.2 | 0.00 | 0.00 | 0.00 | 33 | 1009.5 |
| 20260509053531 | 10 | 181 | 3.2 | 4.8 | 0.00 | 0.00 | 0.00 | 32 | 1009.8 |
| 20260509053027 | 10 | 221 | 3.2 | 3.2 | 0.00 | 0.00 | 0.00 | 34 | 1009.5 |
| 20260509052525 | 10 | 214 | 1.6 | 1.6 | 0.00 | 0.00 | 0.00 | 35 | 1009.7 |
| 20260509052023 | 10 | 193 | 1.6 | 1.6 | 0.00 | 0.00 | 0.00 | 33 | 1009.6 |
| 20260509051521 | 10 | 186 | 1.6 | 1.6 | 0.00 | 0.00 | 0.00 | 32 | 1009.9 |
| 20260509051018 | 10 | 203 | 3.2 | 3.2 | 0.00 | 0.00 | 0.00 | 31 | 1009.8 |
| 20260509050514 | 10 | 174 | 3.2 | 3.2 | 0.00 | 0.00 | 0.00 | 32 | 1009.9 |
| 20260509050011 | 10 | 181 | 3.2 | 3.2 | 0.00 | 0.00 | 0.00 | 32 | 1009.9 |
| 20260509045508 | 10 | 183 | 0.0 | 0.0 | 0.00 | 0.00 | 0.00 | 34 | 1009.9 |
| 20260509045005 | 10 | 199 | 1.6 | 1.6 | 0.00 | 0.00 | 0.00 | 33 | 1009.8 |
| 20260509044503 | 10 | 177 | 3.2 | 3.2 | 0.00 | 0.00 | 0.00 | 33 | 1010.0 |
| 20260509044000 | 11 | 216 | 4.8 | 4.8 | 0.00 | 0.00 | 0.00 | 32 | 1010.3 |
| 20260509043455 | 11 | 178 | 4.8 | 4.8 | 0.00 | 0.00 | 0.00 | 31 | 1010.2 |
| 20260509042951 | 11 | 199 | 8.0 | 11.3 | 0.00 | 0.00 | 0.00 | 31 | 1010.3 |
| 20260509042449 | 11 | 216 | 4.8 | 4.8 | 0.00 | 0.00 | 0.00 | 32 | 1010.3 |
| 20260509041944 | 11 | 194 | 3.2 | 3.2 | 0.00 | 0.00 | 0.00 | 34 | 1010.5 |
| 20260509041442 | 11 | 189 | 9.7 | 11.3 | 0.00 | 0.00 | 0.00 | 33 | 1010.4 |
| 20260509040940 | 10 | 195 | 6.4 | 6.4 | 0.00 | 0.00 | 0.00 | 33 | 1010.6 |
| 20260509040438 | 11 | 204 | 1.6 | 1.6 | 0.00 | 0.00 | 0.00 | 36 | 1010.5 |
| 20260509035934 | 11 | 167 | 6.4 | 6.4 | 0.00 | 0.00 | 0.00 | 33 | 1010.7 |
| 20260509035431 | 11 | 179 | 8.0 | 9.7 | 0.00 | 0.00 | 0.00 | 34 | 1010.5 |
| 20260509034927 | 10 | 191 | 6.4 | 6.4 | 0.00 | 0.00 | 0.00 | 34 | 1010.7 |
| 20260509034425 | 10 | 202 | 3.2 | 3.2 | 0.00 | 0.00 | 0.00 | 35 | 1010.7 |
| 20260509033922 | 10 | 201 | 3.2 | 3.2 | 0.00 | 0.00 | 0.00 | 39 | 1010.7 |
| 20260509033419 | 10 | 181 | 3.2 | 3.2 | 0.00 | 0.00 | 0.00 | 39 | 1010.6 |
| 20260509032915 | 8 | 203 | 1.6 | 3.2 | 0.00 | 0.00 | 0.00 | 44 | 1010.7 |
| 20260509032413 | 8 | 210 | 0.0 | 0.0 | 0.00 | 0.00 | 0.00 | 44 | 1010.9 |
| 20260509031911 | 7 | 209 | 0.0 | 0.0 | 0.00 | 0.00 | 0.00 | 47 | 1010.7 |
| 20260509031408 | 6 | 13 | 0.0 | 0.0 | 0.00 | 0.00 | 0.00 | 49 | 1010.7 |
| 20260509030905 | 6 | 27 | 0.0 | 0.0 | 0.00 | 0.00 | 0.00 | 50 | 1010.8 |
| 20260509030404 | 5 | 28 | 0.0 | 0.0 | 0.00 | 0.00 | 0.00 | 51 | 1011.1 |
| 20260509025900 | 6 | 0 | 3.2 | 3.2 | 0.00 | 0.00 | 0.00 | 55 | 1011.2 |
| 20260509025355 | 5 | 14 | 3.2 | 3.2 | 0.00 | 0.00 | 0.00 | 51 | 1011.1 |
| 20260509024851 | 5 | 8 | 3.2 | 3.2 | 0.00 | 0.00 | 0.00 | 55 | 1011.2 |
| 20260509024347 | 5 | 358 | 3.2 | 3.2 | 0.00 | 0.00 | 0.00 | 53 | 1011.3 |
| 20260509023844 | 5 | 357 | 4.8 | 4.8 | 0.00 | 0.00 | 0.00 | 53 | 1011.1 |
| 20260509023342 | 5 | 1 | 3.2 | 3.2 | 0.00 | 0.00 | 0.00 | 57 | 1011.1 |
| 20260509022838 | 5 | 0 | 4.8 | 3.2 | 0.00 | 0.00 | 0.00 | 54 | 1011.2 |
| 20260509022336 | 5 | 0 | 4.8 | 4.8 | 0.00 | 0.00 | 0.00 | 54 | 1011.2 |
| 20260509021832 | 5 | 347 | 3.2 | 3.2 | 0.00 | 0.00 | 0.00 | 58 | 1011.3 |
| 20260509021329 | 5 | 355 | 1.6 | 1.6 | 0.00 | 0.00 | 0.00 | 57 | 1011.1 |
| 20260509020827 | 5 | 1 | 3.2 | 3.2 | 0.00 | 0.00 | 0.00 | 54 | 1011.3 |
| 20260509020325 | 6 | 356 | 4.8 | 4.8 | 0.00 | 0.00 | 0.00 | 55 | 1011.3 |
| 20260509015822 | 7 | 354 | 4.8 | 3.2 | 0.00 | 0.00 | 0.00 | 47 | 1011.3 |
| 20260509015320 | 7 | 353 | 4.8 | 4.8 | 0.00 | 0.00 | 0.00 | 46 | 1011.1 |
| 20260509014816 | 8 | 358 | 0.0 | 0.0 | 0.00 | 0.00 | 0.00 | 45 | 1011.2 |
| 20260509014314 | 8 | 358 | 1.6 | 0.0 | 0.00 | 0.00 | 0.00 | 44 | 1011.2 |
| 20260509013810 | 9 | 358 | 1.6 | 1.6 | 0.00 | 0.00 | 0.00 | 44 | 1011.5 |
| 20260509013307 | 10 | 350 | 3.2 | 3.2 | 0.00 | 0.00 | 0.00 | 43 | 1011.2 |
| 20260509012803 | 11 | 62 | 0.0 | 0.0 | 0.00 | 0.00 | 0.00 | 40 | 1011.4 |
| 20260509012300 | 12 | 158 | 0.0 | 0.0 | 0.00 | 0.00 | 0.00 | 36 | 1011.0 |
| 20260509011757 | 12 | 186 | 1.6 | 1.6 | 0.00 | 0.00 | 0.00 | 33 | 1011.3 |
| 20260509011254 | 12 | 177 | 1.6 | 1.6 | 0.00 | 0.00 | 0.00 | 34 | 1011.3 |
| 20260509010752 | 12 | 177 | 3.2 | 3.2 | 0.00 | 0.00 | 0.00 | 33 | 1011.2 |
| 20260509010248 | 12 | 206 | 3.2 | 3.2 | 0.00 | 0.00 | 0.00 | 33 | 1011.3 |
| 20260509005746 | 12 | 206 | 3.2 | 3.2 | 0.00 | 0.00 | 0.00 | 33 | 1011.4 |
| 20260509005244 | 12 | 204 | 3.2 | 3.2 | 0.00 | 0.00 | 0.00 | 33 | 1011.2 |
| 20260509004743 | 13 | 217 | 4.8 | 4.8 | 0.00 | 0.00 | 0.00 | 32 | 1011.3 |
| 20260509004241 | 13 | 186 | 4.8 | 4.8 | 0.00 | 0.00 | 0.00 | 31 | 1011.2 |
| 20260509003739 | 13 | 193 | 3.2 | 3.2 | 0.00 | 0.00 | 0.00 | 31 | 1011.0 |
| 20260509003236 | 13 | 159 | 3.2 | 4.8 | 0.00 | 0.00 | 0.00 | 32 | 1011.3 |
| 20260509002733 | 13 | 184 | 0.0 | 0.0 | 0.00 | 0.00 | 0.00 | 35 | 1011.2 |
| 20260509002231 | 13 | 200 | 6.4 | 6.4 | 0.00 | 0.00 | 0.00 | 32 | 1011.4 |
| 20260509001728 | 13 | 199 | 9.7 | 11.3 | 0.00 | 0.00 | 0.00 | 30 | 1011.4 |
| 20260509001224 | 13 | 209 | 3.2 | 3.2 | 0.00 | 0.00 | 0.00 | 31 | 1011.4 |
| 20260509000722 | 13 | 214 | 8.0 | 9.7 | 0.00 | 0.00 | 0.00 | 30 | 1011.5 |
| 20260509000219 | 14 | 172 | 3.2 | 3.2 | 0.00 | 0.00 | 0.00 | 29 | 1011.5 |
| 20260508235716 | 14 | 203 | 8.0 | 9.7 | 0.00 | 0.00 | 0.00 | 29 | 1011.3 |
| 20260508235212 | 14 | 221 | 9.7 | 9.7 | 0.00 | 0.00 | 0.00 | 29 | 1011.4 |
| 20260508234710 | 15 | 191 | 3.2 | 3.2 | 0.00 | 0.00 | 0.00 | 31 | 1011.3 |
| 20260508234206 | 15 | 206 | 6.4 | 6.4 | 0.00 | 0.00 | 0.00 | 28 | 1011.3 |
| 20260508233706 | 15 | 226 | 4.8 | 4.8 | 0.00 | 0.00 | 0.00 | 30 | 1011.5 |
| 20260508233203 | 15 | 196 | 12.9 | 12.9 | 0.00 | 0.00 | 0.00 | 28 | 1011.4 |
| 20260508232700 | 15 | 208 | 9.7 | 11.3 | 0.00 | 0.00 | 0.00 | 30 | 1011.4 |
| 20260508232156 | 15 | 191 | 6.4 | 9.7 | 0.00 | 0.00 | 0.00 | 30 | 1011.4 |
| 20260508231655 | 15 | 219 | 9.7 | 12.9 | 0.00 | 0.00 | 0.00 | 26 | 1011.3 |
| 20260508231151 | 15 | 214 | 12.9 | 14.5 | 0.00 | 0.00 | 0.00 | 28 | 1011.5 |
| 20260508230648 | 15 | 183 | 8.0 | 9.7 | 0.00 | 0.00 | 0.00 | 28 | 1011.5 |
| 20260508230144 | 15 | 238 | 8.0 | 9.7 | 0.00 | 0.00 | 0.00 | 27 | 1011.6 |
| 20260508225642 | 15 | 201 | 11.3 | 16.1 | 0.00 | 0.00 | 0.00 | 28 | 1011.4 |
| 20260508225138 | 15 | 230 | 8.0 | 9.7 | 0.00 | 0.00 | 0.00 | 29 | 1011.4 |
| 20260508224636 | 15 | 224 | 9.7 | 14.5 | 0.00 | 0.00 | 0.00 | 27 | 1011.3 |
| 20260508224134 | 15 | 228 | 6.4 | 6.4 | 0.00 | 0.00 | 0.00 | 28 | 1011.5 |
| 20260508223631 | 16 | 191 | 14.5 | 16.1 | 0.00 | 0.00 | 0.00 | 26 | 1011.6 |
| 20260508223128 | 15 | 198 | 9.7 | 11.3 | 0.00 | 0.00 | 0.00 | 26 | 1011.6 |
| 20260508222626 | 16 | 221 | 9.7 | 11.3 | 0.00 | 0.00 | 0.00 | 27 | 1011.4 |
| 20260508222122 | 16 | 241 | 3.2 | 4.8 | 0.00 | 0.00 | 0.00 | 26 | 1011.6 |
| 20260508221619 | 16 | 244 | 8.0 | 9.7 | 0.00 | 0.00 | 0.00 | 26 | 1011.7 |
| 20260508221114 | 16 | 296 | 4.8 | 6.4 | 0.00 | 0.00 | 0.00 | 26 | 1011.5 |
| 20260508220611 | 16 | 209 | 4.8 | 4.8 | 0.00 | 0.00 | 0.00 | 30 | 1011.6 |
| 20260508220108 | 16 | 251 | 14.5 | 16.1 | 0.00 | 0.00 | 0.00 | 25 | 1011.9 |
| 20260508215605 | 16 | 307 | 12.9 | 17.7 | 0.00 | 0.00 | 0.00 | 25 | 1011.6 |
| 20260508215101 | 16 | 44 | 3.2 | 3.2 | 0.00 | 0.00 | 0.00 | 26 | 1011.5 |
| 20260508214558 | 16 | 187 | 6.4 | 6.4 | 0.00 | 0.00 | 0.00 | 25 | 1011.8 |
| 20260508214055 | 16 | 251 | 12.9 | 12.9 | 0.00 | 0.00 | 0.00 | 24 | 1011.6 |
| 20260508213552 | 16 | 229 | 14.5 | 14.5 | 0.00 | 0.00 | 0.00 | 24 | 1011.7 |
| 20260508213048 | 16 | 241 | 6.4 | 6.4 | 0.00 | 0.00 | 0.00 | 25 | 1011.8 |
| 20260508212545 | 16 | 194 | 9.7 | 11.3 | 0.00 | 0.00 | 0.00 | 26 | 1011.8 |
| 20260508212041 | 16 | 345 | 9.7 | 16.1 | 0.00 | 0.00 | 0.00 | 28 | 1011.8 |
| 20260508211537 | 16 | 252 | 11.3 | 16.1 | 0.00 | 0.00 | 0.00 | 24 | 1011.6 |
| 20260508211033 | 16 | 217 | 11.3 | 14.5 | 0.00 | 0.00 | 0.00 | 26 | 1011.8 |
| 20260508210530 | 16 | 258 | 12.9 | 12.9 | 0.00 | 0.00 | 0.00 | 24 | 1011.7 |
| 20260508210028 | 16 | 151 | 8.0 | 12.9 | 0.00 | 0.00 | 0.00 | 24 | 1011.8 |
| 20260508205524 | 16 | 214 | 14.5 | 16.1 | 0.00 | 0.00 | 0.00 | 26 | 1012.0 |
| 20260508205020 | 17 | 305 | 11.3 | 14.5 | 0.00 | 0.00 | 0.00 | 24 | 1012.1 |
| 20260508204518 | 16 | 107 | 0.0 | 0.0 | 0.00 | 0.00 | 0.00 | 24 | 1012.2 |
| 20260508204013 | 17 | 250 | 4.8 | 6.4 | 0.00 | 0.00 | 0.00 | 23 | 1012.1 |
| 20260508203509 | 17 | 250 | 6.4 | 9.7 | 0.00 | 0.00 | 0.00 | 24 | 1012.2 |
| 20260508203005 | 17 | 223 | 6.4 | 6.4 | 0.00 | 0.00 | 0.00 | 26 | 1012.2 |
| 20260508202503 | 16 | 149 | 3.2 | 3.2 | 0.00 | 0.00 | 0.00 | 26 | 1012.3 |
| 20260508201959 | 16 | 200 | 8.0 | 11.3 | 0.00 | 0.00 | 0.00 | 23 | 1012.3 |
| 20260508201456 | 16 | 225 | 16.1 | 17.7 | 0.00 | 0.00 | 0.00 | 24 | 1012.3 |
| 20260508200953 | 16 | 194 | 19.3 | 20.9 | 0.00 | 0.00 | 0.00 | 26 | 1012.5 |
| 20260508200450 | 16 | 174 | 8.0 | 11.3 | 0.00 | 0.00 | 0.00 | 30 | 1012.4 |
| 20260508195944 | 17 | 214 | 6.4 | 6.4 | 0.00 | 0.00 | 0.00 | 24 | 1012.7 |
| 20260508195442 | 16 | 158 | 1.6 | 1.6 | 0.00 | 0.00 | 0.00 | 26 | 1012.6 |
| 20260508194938 | 16 | 221 | 9.7 | 12.9 | 0.00 | 0.00 | 0.00 | 27 | 1012.8 |
| 20260508194435 | 16 | 182 | 12.9 | 14.5 | 0.00 | 0.00 | 0.00 | 27 | 1012.6 |
| 20260508193932 | 16 | 233 | 11.3 | 14.5 | 0.00 | 0.00 | 0.00 | 25 | 1012.6 |
| 20260508193430 | 16 | 254 | 6.4 | 6.4 | 0.00 | 0.00 | 0.00 | 25 | 1013.1 |
| 20260508192925 | 16 | 197 | 4.8 | 4.8 | 0.00 | 0.00 | 0.00 | 26 | 1013.1 |
| 20260508192423 | 16 | 278 | 8.0 | 11.3 | 0.00 | 0.00 | 0.00 | 25 | 1013.0 |
| 20260508191919 | 16 | 338 | 14.5 | 17.7 | 0.00 | 0.00 | 0.00 | 24 | 1013.1 |
| 20260508191417 | 16 | 184 | 14.5 | 16.1 | 0.00 | 0.00 | 0.00 | 30 | 1012.8 |
| 20260508190913 | 16 | 234 | 9.7 | 12.9 | 0.00 | 0.00 | 0.00 | 24 | 1013.2 |
| 20260508190411 | 16 | 218 | 3.2 | 3.2 | 0.00 | 0.00 | 0.00 | 25 | 1012.8 |
| 20260508185907 | 16 | 237 | 12.9 | 20.9 | 0.00 | 0.00 | 0.00 | 27 | 1013.4 |
| 20260508185404 | 16 | 206 | 19.3 | 22.5 | 0.00 | 0.00 | 0.00 | 27 | 1013.1 |
| 20260508184902 | 16 | 240 | 16.1 | 16.1 | 0.00 | 0.00 | 0.00 | 30 | 1013.2 |
| 20260508184359 | 16 | 215 | 12.9 | 16.1 | 0.00 | 0.00 | 0.00 | 28 | 1013.2 |
| 20260508183855 | 16 | 133 | 3.2 | 4.8 | 0.00 | 0.00 | 0.00 | 24 | 1013.3 |
| 20260508183352 | 15 | 47 | 8.0 | 14.5 | 0.00 | 0.00 | 0.00 | 24 | 1013.4 |
| 20260508182848 | 15 | 312 | 9.7 | 11.3 | 0.00 | 0.00 | 0.00 | 26 | 1013.5 |
| 20260508182345 | 16 | 216 | 11.3 | 12.9 | 0.00 | 0.00 | 0.00 | 30 | 1013.3 |
| 20260508181840 | 16 | 181 | 9.7 | 12.9 | 0.00 | 0.00 | 0.00 | 28 | 1013.7 |
| 20260508181337 | 16 | 121 | 4.8 | 4.8 | 0.00 | 0.00 | 0.00 | 25 | 1013.6 |
| 20260508180834 | 16 | 260 | 9.7 | 11.3 | 0.00 | 0.00 | 0.00 | 25 | 1013.9 |
| 20260508180331 | 16 | 240 | 11.3 | 14.5 | 0.00 | 0.00 | 0.00 | 24 | 1013.7 |
| 20260508175827 | 16 | 227 | 6.4 | 9.7 | 0.00 | 0.00 | 0.00 | 27 | 1013.8 |
| 20260508175324 | 16 | 235 | 6.4 | 6.4 | 0.00 | 0.00 | 0.00 | 28 | 1014.0 |
| 20260508174822 | 15 | 201 | 19.3 | 22.5 | 0.00 | 0.00 | 0.00 | 28 | 1014.0 |
| 20260508174319 | 16 | 192 | 9.7 | 11.3 | 0.00 | 0.00 | 0.00 | 27 | 1014.1 |
| 20260508173815 | 16 | 213 | 14.5 | 16.1 | 0.00 | 0.00 | 0.00 | 28 | 1014.2 |
| 20260508173313 | 15 | 247 | 6.4 | 9.7 | 0.00 | 0.00 | 0.00 | 27 | 1014.3 |
| 20260508172808 | 16 | 14 | 1.6 | 3.2 | 0.00 | 0.00 | 0.00 | 26 | 1014.2 |
| 20260508172307 | 16 | 209 | 6.4 | 9.7 | 0.00 | 0.00 | 0.00 | 27 | 1014.6 |
| 20260508171802 | 16 | 206 | 14.5 | 16.1 | 0.00 | 0.00 | 0.00 | 27 | 1014.3 |
| 20260508171258 | 16 | 243 | 8.0 | 11.3 | 0.00 | 0.00 | 0.00 | 28 | 1014.6 |
| 20260508170755 | 16 | 216 | 9.7 | 12.9 | 0.00 | 0.00 | 0.00 | 29 | 1014.5 |
| 20260508170253 | 16 | 215 | 8.0 | 9.7 | 0.00 | 0.00 | 0.00 | 28 | 1014.6 |
| 20260508165749 | 16 | 181 | 17.7 | 22.5 | 0.00 | 0.00 | 0.00 | 26 | 1014.6 |
| 20260508165247 | 16 | 346 | 1.6 | 3.2 | 0.00 | 0.00 | 0.00 | 26 | 1014.6 |
| 20260508164743 | 15 | 48 | 6.4 | 6.4 | 0.00 | 0.00 | 0.00 | 27 | 1014.9 |
| 20260508164240 | 15 | 204 | 6.4 | 6.4 | 0.00 | 0.00 | 0.00 | 28 | 1014.6 |
| 20260508163738 | 15 | 206 | 4.8 | 4.8 | 0.00 | 0.00 | 0.00 | 28 | 1015.0 |
| 20260508163235 | 16 | 255 | 6.4 | 9.7 | 0.00 | 0.00 | 0.00 | 27 | 1014.8 |
| 20260508162731 | 15 | 145 | 6.4 | 6.4 | 0.00 | 0.00 | 0.00 | 30 | 1014.8 |
| 20260508162228 | 15 | 321 | 6.4 | 6.4 | 0.00 | 0.00 | 0.00 | 27 | 1015.0 |
| 20260508161725 | 15 | 229 | 6.4 | 6.4 | 0.00 | 0.00 | 0.00 | 29 | 1015.0 |
| 20260508161222 | 15 | 240 | 6.4 | 6.4 | 0.00 | 0.00 | 0.00 | 27 | 1015.1 |
| 20260508160720 | 14 | 14 | 4.8 | 6.4 | 0.00 | 0.00 | 0.00 | 29 | 1015.2 |
| 20260508160218 | 14 | 52 | 4.8 | 4.8 | 0.00 | 0.00 | 0.00 | 26 | 1015.1 |
| 20260508155714 | 14 | 226 | 14.5 | 16.1 | 0.00 | 0.00 | 0.00 | 25 | 1015.0 |
| 20260508155212 | 13 | 216 | 14.5 | 16.1 | 0.00 | 0.00 | 0.00 | 29 | 1015.3 |
| 20260508154708 | 14 | 221 | 20.9 | 24.1 | 0.00 | 0.00 | 0.00 | 26 | 1015.2 |
| 20260508154206 | 14 | 212 | 12.9 | 12.9 | 0.00 | 0.00 | 0.00 | 30 | 1015.3 |
| 20260508153702 | 14 | 214 | 14.5 | 22.5 | 0.00 | 0.00 | 0.00 | 31 | 1015.2 |
| 20260508153159 | 13 | 191 | 8.0 | 9.7 | 0.00 | 0.00 | 0.00 | 30 | 1015.1 |
| 20260508152655 | 13 | 218 | 12.9 | 17.7 | 0.00 | 0.00 | 0.00 | 32 | 1015.2 |
| 20260508152151 | 13 | 210 | 19.3 | 24.1 | 0.00 | 0.00 | 0.00 | 33 | 1015.4 |
| 20260508151648 | 13 | 188 | 6.4 | 6.4 | 0.00 | 0.00 | 0.00 | 33 | 1015.5 |
| 20260508151145 | 13 | 248 | 6.4 | 6.4 | 0.00 | 0.00 | 0.00 | 33 | 1015.3 |
| 20260508150642 | 13 | 219 | 9.7 | 11.3 | 0.00 | 0.00 | 0.00 | 33 | 1015.3 |
| 20260508150138 | 13 | 249 | 8.0 | 11.3 | 0.00 | 0.00 | 0.00 | 34 | 1015.2 |
| 20260508145634 | 12 | 210 | 6.4 | 6.4 | 0.00 | 0.00 | 0.00 | 34 | 1015.4 |
| 20260508145131 | 13 | 262 | 14.5 | 14.5 | 0.00 | 0.00 | 0.00 | 34 | 1015.4 |
| 20260508144628 | 12 | 229 | 3.2 | 4.8 | 0.00 | 0.00 | 0.00 | 34 | 1015.6 |
| 20260508144126 | 12 | 219 | 9.7 | 9.7 | 0.00 | 0.00 | 0.00 | 34 | 1015.5 |
| 20260508143623 | 12 | 269 | 6.4 | 6.4 | 0.00 | 0.00 | 0.00 | 39 | 1015.5 |
| 20260508143120 | 12 | 111 | 1.6 | 1.6 | 0.00 | 0.00 | 0.00 | 38 | 1015.6 |
| 20260508142616 | 12 | 216 | 16.1 | 17.7 | 0.00 | 0.00 | 0.00 | 36 | 1015.6 |
| 20260508142113 | 12 | 115 | 4.8 | 6.4 | 0.00 | 0.00 | 0.00 | 40 | 1015.6 |
| 20260508141610 | 11 | 211 | 9.7 | 9.7 | 0.00 | 0.00 | 0.00 | 41 | 1015.9 |
| 20260508141108 | 11 | 202 | 14.5 | 16.1 | 0.00 | 0.00 | 0.00 | 44 | 1016.0 |
| 20260508140604 | 11 | 250 | 6.4 | 11.3 | 0.00 | 0.00 | 0.00 | 39 | 1016.0 |
| 20260508135556 | 11 | 206 | 16.1 | 17.7 | 0.00 | 0.00 | 0.00 | 44 | 1016.0 |
| 20260508135053 | 10 | 239 | 12.9 | 14.5 | 0.00 | 0.00 | 0.00 | 44 | 1016.0 |
| 20260508134550 | 10 | 196 | 9.7 | 12.9 | 0.00 | 0.00 | 0.00 | 42 | 1016.1 |
| 20260508134047 | 10 | 251 | 11.3 | 14.5 | 0.00 | 0.00 | 0.00 | 45 | 1016.2 |
| 20260508133543 | 10 | 197 | 11.3 | 12.9 | 0.00 | 0.00 | 0.00 | 48 | 1016.0 |
| 20260508133041 | 10 | 155 | 3.2 | 4.8 | 0.00 | 0.00 | 0.00 | 51 | 1016.1 |
| 20260508132539 | 10 | 200 | 9.7 | 11.3 | 0.00 | 0.00 | 0.00 | 51 | 1016.3 |
| 20260508132035 | 10 | 180 | 4.8 | 6.4 | 0.00 | 0.00 | 0.00 | 50 | 1016.3 |
| 20260508131530 | 10 | 219 | 9.7 | 11.3 | 0.00 | 0.00 | 0.00 | 54 | 1016.2 |
| 20260508131027 | 9 | 172 | 8.0 | 9.7 | 0.00 | 0.00 | 0.00 | 55 | 1016.2 |
| 20260508130525 | 8 | 191 | 12.9 | 14.5 | 0.00 | 0.00 | 0.00 | 56 | 1016.3 |
| 20260508130021 | 8 | 206 | 8.0 | 9.7 | 0.00 | 0.00 | 0.00 | 57 | 1016.1 |
| 20260508125516 | 8 | 195 | 9.7 | 11.3 | 0.00 | 0.00 | 0.00 | 56 | 1016.2 |
| 20260508125015 | 7 | 180 | 8.0 | 9.7 | 0.00 | 0.00 | 0.00 | 56 | 1016.2 |
| 20260508124512 | 7 | 189 | 9.7 | 9.7 | 0.00 | 0.00 | 0.00 | 58 | 1016.4 |
| 20260508124009 | 7 | 198 | 9.7 | 11.3 | 0.00 | 0.00 | 0.00 | 57 | 1016.2 |
| 20260508123508 | 7 | 196 | 9.7 | 11.3 | 0.00 | 0.00 | 0.00 | 60 | 1016.4 |
| 20260508123004 | 7 | 206 | 1.6 | 4.8 | 0.00 | 0.00 | 0.00 | 61 | 1016.1 |
| 20260508122501 | 6 | 127 | 3.2 | 3.2 | 0.00 | 0.00 | 0.00 | 61 | 1016.3 |
| 20260508121958 | 6 | 125 | 3.2 | 3.2 | 0.00 | 0.00 | 0.00 | 64 | 1016.1 |
| 20260508121456 | 6 | 152 | 1.6 | 3.2 | 0.00 | 0.00 | 0.00 | 64 | 1016.1 |
| 20260508120954 | 6 | 102 | 0.0 | 0.0 | 0.00 | 0.00 | 0.00 | 65 | 1016.0 |
| 20260508120451 | 6 | 99 | 0.0 | 0.0 | 0.00 | 0.00 | 0.00 | 67 | 1016.0 |
| 20260508115949 | 4 | 89 | 0.0 | 0.0 | 0.00 | 0.00 | 0.00 | 71 | 1015.8 |
| 20260508115447 | 3 | 70 | 0.0 | 0.0 | 0.00 | 0.00 | 0.00 | 82 | 1015.9 |
| 20260508114943 | 2 | 69 | 1.6 | 1.6 | 0.00 | 0.00 | 0.00 | 83 | 1016.0 |
| 20260508114440 | 2 | 69 | 0.0 | 0.0 | 0.00 | 0.00 | 0.00 | 82 | 1016.1 |
| 20260508113936 | 1 | 69 | 0.0 | 0.0 | 0.00 | 0.00 | 0.00 | 83 | 1015.8 |
| 20260508113434 | 0 | 69 | 0.0 | 0.0 | 0.00 | 0.00 | 0.00 | 86 | 1016.1 |
| 20260508112931 | 0 | 65 | 3.2 | 3.2 | 0.00 | 0.00 | 0.00 | 87 | 1015.8 |
| 20260508112428 | 0 | 62 | 3.2 | 3.2 | 0.00 | 0.00 | 0.00 | 86 | 1015.8 |
| 20260508111924 | -1 | 63 | 0.0 | 0.0 | 0.00 | 0.00 | 0.00 | 87 | 1015.8 |
| 20260508111422 | -1 | 62 | 1.6 | 1.6 | 0.00 | 0.00 | 0.00 | 87 | 1015.8 |
| 20260508110919 | -1 | 62 | 0.0 | 0.0 | 0.00 | 0.00 | 0.00 | 89 | 1016.0 |
| 20260508110417 | -2 | 62 | 1.6 | 1.6 | 0.00 | 0.00 | 0.00 | 91 | 1015.8 |
| 20260508105916 | -2 | 57 | 1.6 | 1.6 | 0.00 | 0.00 | 0.00 | 92 | 1015.8 |
| 20260508105412 | -3 | 59 | 3.2 | 3.2 | 0.00 | 0.00 | 0.00 | 93 | 1015.8 |
| 20260508104910 | -3 | 60 | 1.6 | 3.2 | 0.00 | 0.00 | 0.00 | 94 | 1015.9 |
| 20260508104407 | -4 | 60 | 1.6 | 1.6 | 0.00 | 0.00 | 0.00 | 92 | 1015.8 |
| 20260508103904 | -4 | 60 | 1.6 | 1.6 | 0.00 | 0.00 | 0.00 | 92 | 1015.5 |
| 20260508103401 | -3 | 60 | 1.6 | 1.6 | 0.00 | 0.00 | 0.00 | 92 | 1015.6 |
| 20260508102858 | -3 | 60 | 1.6 | 1.6 | 0.00 | 0.00 | 0.00 | 92 | 1015.5 |
| 20260508102356 | -3 | 60 | 1.6 | 0.0 | 0.00 | 0.00 | 0.00 | 93 | 1015.6 |
| 20260508101853 | -3 | 60 | 0.0 | 0.0 | 0.00 | 0.00 | 0.00 | 94 | 1015.8 |
| 20260508101350 | -3 | 45 | 3.2 | 3.2 | 0.00 | 0.00 | 0.00 | 94 | 1015.8 |
| 20260508100848 | -3 | 47 | 4.8 | 4.8 | 0.00 | 0.00 | 0.00 | 94 | 1016.0 |
| 20260508100347 | -3 | 48 | 3.2 | 3.2 | 0.00 | 0.00 | 0.00 | 95 | 1015.9 |
| 20260508095842 | -4 | 46 | 3.2 | 3.2 | 0.00 | 0.00 | 0.00 | 94 | 1016.0 |
| 20260508095340 | -3 | 58 | 4.8 | 3.2 | 0.00 | 0.00 | 0.00 | 94 | 1015.8 |
| 20260508094836 | -4 | 61 | 1.6 | 1.6 | 0.00 | 0.00 | 0.00 | 93 | 1016.0 |
| 20260508094333 | -3 | 61 | 0.0 | 0.0 | 0.00 | 0.00 | 0.00 | 94 | 1015.9 |
| 20260508093830 | -3 | 61 | 0.0 | 0.0 | 0.00 | 0.00 | 0.00 | 93 | 1015.8 |
| 20260508093328 | -3 | 61 | 0.0 | 0.0 | 0.00 | 0.00 | 0.00 | 93 | 1016.2 |
| 20260508092825 | -3 | 61 | 0.0 | 0.0 | 0.00 | 0.00 | 0.00 | 93 | 1016.0 |
| 20260508092323 | -3 | 60 | 1.6 | 1.6 | 0.00 | 0.00 | 0.00 | 93 | 1016.0 |
| 20260508091821 | -3 | 60 | 1.6 | 1.6 | 0.00 | 0.00 | 0.00 | 94 | 1016.1 |
| 20260508091317 | -3 | 60 | 1.6 | 1.6 | 0.00 | 0.00 | 0.00 | 93 | 1016.2 |